sensor_id;sensor_type;location;lat;lon;timestamp;temperature;humidity
12588;DHT22;6359;51.450;7.346;2022-10-30T00:02:21;18.50;99.90
12588;DHT22;6359;51.450;7.346;2022-10-30T00:04:48;18.50;99.90
12588;DHT22;6359;51.450;7.346;2022-10-30T00:07:15;18.50;99.90
12588;DHT22;6359;51.450;7.346;2022-10-30T00:09:43;18.50;99.90
12588;DHT22;6359;51.450;7.346;2022-10-30T00:12:10;18.50;99.90
12588;DHT22;6359;51.450;7.346;2022-10-30T00:14:37;18.50;99.90
12588;DHT22;6359;51.450;7.346;2022-10-30T00:17:04;18.60;99.90
12588;DHT22;6359;51.450;7.346;2022-10-30T00:19:31;18.60;99.90
12588;DHT22;6359;51.450;7.346;2022-10-30T00:21:57;18.60;99.90
12588;DHT22;6359;51.450;7.346;2022-10-30T00:24:27;18.50;99.90
12588;DHT22;6359;51.450;7.346;2022-10-30T00:26:55;18.50;99.90
12588;DHT22;6359;51.450;7.346;2022-10-30T00:29:22;18.40;99.90
12588;DHT22;6359;51.450;7.346;2022-10-30T00:31:50;18.40;99.90
12588;DHT22;6359;51.450;7.346;2022-10-30T00:34:17;18.40;99.90
12588;DHT22;6359;51.450;7.346;2022-10-30T00:36:44;18.30;99.90
12588;DHT22;6359;51.450;7.346;2022-10-30T00:39:11;18.30;99.90
12588;DHT22;6359;51.450;7.346;2022-10-30T00:41:38;18.40;99.90
12588;DHT22;6359;51.450;7.346;2022-10-30T00:44:39;18.40;99.90
12588;DHT22;6359;51.450;7.346;2022-10-30T00:47:14;18.40;99.90
12588;DHT22;6359;51.450;7.346;2022-10-30T00:49:49;18.40;99.90
12588;DHT22;6359;51.450;7.346;2022-10-30T00:52:17;18.30;99.90
12588;DHT22;6359;51.450;7.346;2022-10-30T00:54:45;18.30;99.90
12588;DHT22;6359;51.450;7.346;2022-10-30T00:57:12;18.20;99.90
12588;DHT22;6359;51.450;7.346;2022-10-30T00:59:41;18.20;99.90
12588;DHT22;6359;51.450;7.346;2022-10-30T01:02:08;18.10;99.90
12588;DHT22;6359;51.450;7.346;2022-10-30T01:04:36;18.10;99.90
12588;DHT22;6359;51.450;7.346;2022-10-30T01:07:09;18.10;99.90
12588;DHT22;6359;51.450;7.346;2022-10-30T01:09:36;18.00;99.90
12588;DHT22;6359;51.450;7.346;2022-10-30T01:12:04;17.80;99.90
12588;DHT22;6359;51.450;7.346;2022-10-30T01:14:32;17.70;99.90
12588;DHT22;6359;51.450;7.346;2022-10-30T01:17:22;17.60;99.90
12588;DHT22;6359;51.450;7.346;2022-10-30T01:19:59;17.50;99.90
12588;DHT22;6359;51.450;7.346;2022-10-30T01:22:38;17.50;99.90
12588;DHT22;6359;51.450;7.346;2022-10-30T01:25:14;17.40;99.90
12588;DHT22;6359;51.450;7.346;2022-10-30T01:27:51;17.30;99.90
12588;DHT22;6359;51.450;7.346;2022-10-30T01:30:33;17.30;99.90
12588;DHT22;6359;51.450;7.346;2022-10-30T01:33:13;17.20;99.90
12588;DHT22;6359;51.450;7.346;2022-10-30T01:35:48;17.20;99.90
12588;DHT22;6359;51.450;7.346;2022-10-30T01:38:22;17.30;99.90
12588;DHT22;6359;51.450;7.346;2022-10-30T01:40:50;17.30;99.90
12588;DHT22;6359;51.450;7.346;2022-10-30T01:43:16;17.30;99.90
12588;DHT22;6359;51.450;7.346;2022-10-30T01:45:59;17.30;99.90
12588;DHT22;6359;51.450;7.346;2022-10-30T01:48:50;17.30;99.90
12588;DHT22;6359;51.450;7.346;2022-10-30T01:51:25;17.20;99.90
12588;DHT22;6359;51.450;7.346;2022-10-30T01:54:00;17.30;99.90
12588;DHT22;6359;51.450;7.346;2022-10-30T01:56:36;17.30;99.90
12588;DHT22;6359;51.450;7.346;2022-10-30T01:59:10;17.30;99.90
12588;DHT22;6359;51.450;7.346;2022-10-30T02:01:39;17.20;99.90
12588;DHT22;6359;51.450;7.346;2022-10-30T02:04:08;17.20;99.90
12588;DHT22;6359;51.450;7.346;2022-10-30T02:06:36;17.20;99.90
12588;DHT22;6359;51.450;7.346;2022-10-30T02:09:04;17.20;99.90
12588;DHT22;6359;51.450;7.346;2022-10-30T02:11:32;17.10;99.90
12588;DHT22;6359;51.450;7.346;2022-10-30T02:14:02;17.10;99.90
12588;DHT22;6359;51.450;7.346;2022-10-30T02:16:30;17.00;99.90
12588;DHT22;6359;51.450;7.346;2022-10-30T02:18:59;17.00;99.90
12588;DHT22;6359;51.450;7.346;2022-10-30T02:21:27;17.00;99.90
12588;DHT22;6359;51.450;7.346;2022-10-30T02:23:57;17.00;99.90
12588;DHT22;6359;51.450;7.346;2022-10-30T02:26:24;17.00;99.90
12588;DHT22;6359;51.450;7.346;2022-10-30T02:28:50;17.00;99.90
12588;DHT22;6359;51.450;7.346;2022-10-30T02:31:17;17.00;99.90
12588;DHT22;6359;51.450;7.346;2022-10-30T02:33:45;17.00;99.90
12588;DHT22;6359;51.450;7.346;2022-10-30T02:36:12;16.90;99.90
12588;DHT22;6359;51.450;7.346;2022-10-30T02:38:41;16.90;99.90
12588;DHT22;6359;51.450;7.346;2022-10-30T02:41:08;17.00;99.90
12588;DHT22;6359;51.450;7.346;2022-10-30T02:43:35;17.10;99.90
12588;DHT22;6359;51.450;7.346;2022-10-30T02:46:03;17.00;99.90
12588;DHT22;6359;51.450;7.346;2022-10-30T02:48:30;17.00;99.90
12588;DHT22;6359;51.450;7.346;2022-10-30T02:50:58;17.00;99.90
12588;DHT22;6359;51.450;7.346;2022-10-30T02:53:25;17.00;99.90
12588;DHT22;6359;51.450;7.346;2022-10-30T02:55:54;17.00;99.90
12588;DHT22;6359;51.450;7.346;2022-10-30T02:58:21;16.90;99.90
12588;DHT22;6359;51.450;7.346;2022-10-30T03:00:48;16.80;99.90
12588;DHT22;6359;51.450;7.346;2022-10-30T03:03:14;16.80;99.90
12588;DHT22;6359;51.450;7.346;2022-10-30T03:05:41;16.80;99.90
12588;DHT22;6359;51.450;7.346;2022-10-30T03:08:08;16.80;99.90
12588;DHT22;6359;51.450;7.346;2022-10-30T03:10:35;16.70;99.90
12588;DHT22;6359;51.450;7.346;2022-10-30T03:13:03;16.70;99.90
12588;DHT22;6359;51.450;7.346;2022-10-30T03:15:30;16.70;99.90
12588;DHT22;6359;51.450;7.346;2022-10-30T03:17:57;16.60;99.90
12588;DHT22;6359;51.450;7.346;2022-10-30T03:20:24;16.50;99.90
12588;DHT22;6359;51.450;7.346;2022-10-30T03:22:50;16.40;99.90
12588;DHT22;6359;51.450;7.346;2022-10-30T03:25:18;16.40;99.90
12588;DHT22;6359;51.450;7.346;2022-10-30T03:27:48;16.30;99.90
12588;DHT22;6359;51.450;7.346;2022-10-30T03:30:16;16.20;99.90
12588;DHT22;6359;51.450;7.346;2022-10-30T03:32:43;16.20;99.90
12588;DHT22;6359;51.450;7.346;2022-10-30T03:35:10;16.10;99.90
12588;DHT22;6359;51.450;7.346;2022-10-30T03:37:36;16.00;99.90
12588;DHT22;6359;51.450;7.346;2022-10-30T03:40:04;16.00;99.90
12588;DHT22;6359;51.450;7.346;2022-10-30T03:42:31;15.90;99.90
12588;DHT22;6359;51.450;7.346;2022-10-30T03:44:58;15.90;99.90
12588;DHT22;6359;51.450;7.346;2022-10-30T03:47:26;15.90;99.90
12588;DHT22;6359;51.450;7.346;2022-10-30T03:49:53;15.90;99.90
12588;DHT22;6359;51.450;7.346;2022-10-30T03:52:19;16.00;99.90
12588;DHT22;6359;51.450;7.346;2022-10-30T03:54:46;16.00;99.90
12588;DHT22;6359;51.450;7.346;2022-10-30T03:57:13;16.00;99.90
12588;DHT22;6359;51.450;7.346;2022-10-30T03:59:40;15.90;99.90
12588;DHT22;6359;51.450;7.346;2022-10-30T04:02:07;15.90;99.90
12588;DHT22;6359;51.450;7.346;2022-10-30T04:04:35;15.80;99.90
12588;DHT22;6359;51.450;7.346;2022-10-30T04:07:02;15.80;99.90
12588;DHT22;6359;51.450;7.346;2022-10-30T04:09:28;15.80;99.90
12588;DHT22;6359;51.450;7.346;2022-10-30T04:11:55;15.70;99.90
12588;DHT22;6359;51.450;7.346;2022-10-30T04:14:22;15.70;99.90
12588;DHT22;6359;51.450;7.346;2022-10-30T04:16:49;15.60;99.90
12588;DHT22;6359;51.450;7.346;2022-10-30T04:19:16;15.50;99.90
12588;DHT22;6359;51.450;7.346;2022-10-30T04:21:44;15.30;99.90
12588;DHT22;6359;51.450;7.346;2022-10-30T04:24:12;15.20;99.90
12588;DHT22;6359;51.450;7.346;2022-10-30T04:26:41;15.10;99.90
12588;DHT22;6359;51.450;7.346;2022-10-30T04:29:08;15.20;99.90
12588;DHT22;6359;51.450;7.346;2022-10-30T04:31:34;15.20;99.90
12588;DHT22;6359;51.450;7.346;2022-10-30T04:34:01;15.20;99.90
12588;DHT22;6359;51.450;7.346;2022-10-30T04:36:28;15.30;99.90
12588;DHT22;6359;51.450;7.346;2022-10-30T04:39:00;15.40;99.90
12588;DHT22;6359;51.450;7.346;2022-10-30T04:41:27;15.40;99.90
12588;DHT22;6359;51.450;7.346;2022-10-30T04:43:54;15.40;99.90
12588;DHT22;6359;51.450;7.346;2022-10-30T04:46:21;15.40;99.90
12588;DHT22;6359;51.450;7.346;2022-10-30T04:48:47;15.40;99.90
12588;DHT22;6359;51.450;7.346;2022-10-30T04:51:14;15.40;99.90
12588;DHT22;6359;51.450;7.346;2022-10-30T04:53:41;15.30;99.90
12588;DHT22;6359;51.450;7.346;2022-10-30T04:56:09;15.20;99.90
12588;DHT22;6359;51.450;7.346;2022-10-30T04:58:36;15.10;99.90
12588;DHT22;6359;51.450;7.346;2022-10-30T05:01:04;15.00;99.90
12588;DHT22;6359;51.450;7.346;2022-10-30T05:03:31;15.00;99.90
12588;DHT22;6359;51.450;7.346;2022-10-30T05:06:00;14.90;99.90
12588;DHT22;6359;51.450;7.346;2022-10-30T05:08:27;14.80;99.90
12588;DHT22;6359;51.450;7.346;2022-10-30T05:10:55;14.70;99.90
12588;DHT22;6359;51.450;7.346;2022-10-30T05:13:23;14.60;99.90
12588;DHT22;6359;51.450;7.346;2022-10-30T05:15:52;14.40;99.90
12588;DHT22;6359;51.450;7.346;2022-10-30T05:18:19;14.20;99.90
12588;DHT22;6359;51.450;7.346;2022-10-30T05:20:46;14.10;99.90
12588;DHT22;6359;51.450;7.346;2022-10-30T05:23:13;14.20;99.90
12588;DHT22;6359;51.450;7.346;2022-10-30T05:25:40;14.20;99.90
12588;DHT22;6359;51.450;7.346;2022-10-30T05:28:08;14.30;99.90
12588;DHT22;6359;51.450;7.346;2022-10-30T05:30:36;14.20;99.90
12588;DHT22;6359;51.450;7.346;2022-10-30T05:33:05;14.00;99.90
12588;DHT22;6359;51.450;7.346;2022-10-30T05:35:33;13.90;99.90
12588;DHT22;6359;51.450;7.346;2022-10-30T05:38:01;13.70;99.90
12588;DHT22;6359;51.450;7.346;2022-10-30T05:40:29;13.60;99.90
12588;DHT22;6359;51.450;7.346;2022-10-30T05:42:55;13.50;99.90
12588;DHT22;6359;51.450;7.346;2022-10-30T05:45:22;13.30;99.90
12588;DHT22;6359;51.450;7.346;2022-10-30T05:47:55;13.20;99.90
12588;DHT22;6359;51.450;7.346;2022-10-30T05:50:22;13.00;99.90
12588;DHT22;6359;51.450;7.346;2022-10-30T05:52:49;12.90;99.90
12588;DHT22;6359;51.450;7.346;2022-10-30T05:55:20;12.90;99.90
12588;DHT22;6359;51.450;7.346;2022-10-30T05:57:46;12.70;99.90
12588;DHT22;6359;51.450;7.346;2022-10-30T06:00:14;12.70;99.90
12588;DHT22;6359;51.450;7.346;2022-10-30T06:02:41;12.60;99.90
12588;DHT22;6359;51.450;7.346;2022-10-30T06:05:09;12.50;99.90
12588;DHT22;6359;51.450;7.346;2022-10-30T06:07:36;12.40;99.90
12588;DHT22;6359;51.450;7.346;2022-10-30T06:10:04;12.30;99.90
12588;DHT22;6359;51.450;7.346;2022-10-30T06:12:31;12.20;99.90
12588;DHT22;6359;51.450;7.346;2022-10-30T06:14:57;12.10;99.90
12588;DHT22;6359;51.450;7.346;2022-10-30T06:17:24;12.10;99.90
12588;DHT22;6359;51.450;7.346;2022-10-30T06:19:51;12.00;99.90
12588;DHT22;6359;51.450;7.346;2022-10-30T06:22:19;11.90;99.90
12588;DHT22;6359;51.450;7.346;2022-10-30T06:24:46;11.70;99.90
12588;DHT22;6359;51.450;7.346;2022-10-30T06:27:13;11.70;99.90
12588;DHT22;6359;51.450;7.346;2022-10-30T06:29:40;11.60;99.90
12588;DHT22;6359;51.450;7.346;2022-10-30T06:32:07;11.60;99.90
12588;DHT22;6359;51.450;7.346;2022-10-30T06:34:34;11.70;99.90
12588;DHT22;6359;51.450;7.346;2022-10-30T06:37:01;11.70;99.90
12588;DHT22;6359;51.450;7.346;2022-10-30T06:39:29;11.70;99.90
12588;DHT22;6359;51.450;7.346;2022-10-30T06:41:56;11.60;99.90
12588;DHT22;6359;51.450;7.346;2022-10-30T06:44:22;11.60;99.90
12588;DHT22;6359;51.450;7.346;2022-10-30T06:46:51;11.60;99.90
12588;DHT22;6359;51.450;7.346;2022-10-30T06:49:18;11.60;99.90
12588;DHT22;6359;51.450;7.346;2022-10-30T06:51:46;11.60;99.90
12588;DHT22;6359;51.450;7.346;2022-10-30T06:54:13;11.60;99.90
12588;DHT22;6359;51.450;7.346;2022-10-30T06:56:41;11.60;99.90
12588;DHT22;6359;51.450;7.346;2022-10-30T06:59:08;11.70;99.90
12588;DHT22;6359;51.450;7.346;2022-10-30T07:01:36;11.80;99.90
12588;DHT22;6359;51.450;7.346;2022-10-30T07:04:02;11.90;99.90
12588;DHT22;6359;51.450;7.346;2022-10-30T07:06:29;12.00;99.90
12588;DHT22;6359;51.450;7.346;2022-10-30T07:08:56;12.10;99.90
12588;DHT22;6359;51.450;7.346;2022-10-30T07:11:23;12.20;99.90
12588;DHT22;6359;51.450;7.346;2022-10-30T07:13:51;12.30;99.90
12588;DHT22;6359;51.450;7.346;2022-10-30T07:16:18;12.40;99.90
12588;DHT22;6359;51.450;7.346;2022-10-30T07:18:45;12.50;99.90
12588;DHT22;6359;51.450;7.346;2022-10-30T07:21:12;12.70;99.90
12588;DHT22;6359;51.450;7.346;2022-10-30T07:23:39;12.70;99.90
12588;DHT22;6359;51.450;7.346;2022-10-30T07:26:05;12.90;99.90
12588;DHT22;6359;51.450;7.346;2022-10-30T07:28:32;13.00;99.90
12588;DHT22;6359;51.450;7.346;2022-10-30T07:31:01;13.20;99.90
12588;DHT22;6359;51.450;7.346;2022-10-30T07:33:27;13.40;99.90
12588;DHT22;6359;51.450;7.346;2022-10-30T07:35:54;13.60;99.90
12588;DHT22;6359;51.450;7.346;2022-10-30T07:38:21;13.80;99.90
12588;DHT22;6359;51.450;7.346;2022-10-30T07:40:51;14.30;99.90
12588;DHT22;6359;51.450;7.346;2022-10-30T07:43:18;15.30;99.90
12588;DHT22;6359;51.450;7.346;2022-10-30T07:45:45;16.50;99.90
12588;DHT22;6359;51.450;7.346;2022-10-30T07:48:13;17.30;99.90
12588;DHT22;6359;51.450;7.346;2022-10-30T07:50:41;17.50;99.90
12588;DHT22;6359;51.450;7.346;2022-10-30T07:53:07;17.70;99.90
12588;DHT22;6359;51.450;7.346;2022-10-30T07:55:34;18.10;99.90
12588;DHT22;6359;51.450;7.346;2022-10-30T07:58:01;18.40;99.90
12588;DHT22;6359;51.450;7.346;2022-10-30T08:00:28;18.20;99.90
12588;DHT22;6359;51.450;7.346;2022-10-30T08:02:55;17.90;99.90
12588;DHT22;6359;51.450;7.346;2022-10-30T08:05:24;17.90;99.90
12588;DHT22;6359;51.450;7.346;2022-10-30T08:07:51;17.80;99.90
12588;DHT22;6359;51.450;7.346;2022-10-30T08:10:18;18.30;99.90
12588;DHT22;6359;51.450;7.346;2022-10-30T08:12:45;19.20;99.90
12588;DHT22;6359;51.450;7.346;2022-10-30T08:15:12;20.00;99.90
12588;DHT22;6359;51.450;7.346;2022-10-30T08:17:43;20.90;99.90
12588;DHT22;6359;51.450;7.346;2022-10-30T08:20:12;21.30;99.90
12588;DHT22;6359;51.450;7.346;2022-10-30T08:22:47;22.10;99.90
12588;DHT22;6359;51.450;7.346;2022-10-30T08:25:16;23.10;99.90
12588;DHT22;6359;51.450;7.346;2022-10-30T08:27:51;23.20;99.90
12588;DHT22;6359;51.450;7.346;2022-10-30T08:30:18;23.60;99.90
12588;DHT22;6359;51.450;7.346;2022-10-30T08:32:45;23.30;99.90
12588;DHT22;6359;51.450;7.346;2022-10-30T08:35:12;23.30;99.90
12588;DHT22;6359;51.450;7.346;2022-10-30T08:37:39;23.70;99.90
12588;DHT22;6359;51.450;7.346;2022-10-30T08:40:09;23.60;99.90
12588;DHT22;6359;51.450;7.346;2022-10-30T08:42:36;24.00;99.90
12588;DHT22;6359;51.450;7.346;2022-10-30T08:45:04;24.10;99.90
12588;DHT22;6359;51.450;7.346;2022-10-30T08:47:31;24.30;99.90
12588;DHT22;6359;51.450;7.346;2022-10-30T08:49:57;24.30;99.90
12588;DHT22;6359;51.450;7.346;2022-10-30T08:52:24;24.60;99.90
12588;DHT22;6359;51.450;7.346;2022-10-30T08:54:51;25.00;99.90
12588;DHT22;6359;51.450;7.346;2022-10-30T08:57:20;24.80;99.90
12588;DHT22;6359;51.450;7.346;2022-10-30T08:59:47;25.00;99.90
12588;DHT22;6359;51.450;7.346;2022-10-30T09:02:13;25.50;99.90
12588;DHT22;6359;51.450;7.346;2022-10-30T09:04:40;25.70;99.90
12588;DHT22;6359;51.450;7.346;2022-10-30T09:07:07;25.50;99.90
12588;DHT22;6359;51.450;7.346;2022-10-30T09:09:34;25.60;99.90
12588;DHT22;6359;51.450;7.346;2022-10-30T09:12:01;25.90;99.90
12588;DHT22;6359;51.450;7.346;2022-10-30T09:14:29;26.20;99.90
12588;DHT22;6359;51.450;7.346;2022-10-30T09:16:56;25.90;99.90
12588;DHT22;6359;51.450;7.346;2022-10-30T09:19:23;25.90;99.90
12588;DHT22;6359;51.450;7.346;2022-10-30T09:21:53;26.30;99.90
12588;DHT22;6359;51.450;7.346;2022-10-30T09:24:19;26.50;99.90
12588;DHT22;6359;51.450;7.346;2022-10-30T09:26:46;27.00;99.90
12588;DHT22;6359;51.450;7.346;2022-10-30T09:29:13;27.20;99.90
12588;DHT22;6359;51.450;7.346;2022-10-30T09:31:41;27.00;99.90
12588;DHT22;6359;51.450;7.346;2022-10-30T09:34:08;27.60;99.90
12588;DHT22;6359;51.450;7.346;2022-10-30T09:36:35;27.20;99.90
12588;DHT22;6359;51.450;7.346;2022-10-30T09:39:03;27.00;99.90
12588;DHT22;6359;51.450;7.346;2022-10-30T09:41:52;27.30;99.90
12588;DHT22;6359;51.450;7.346;2022-10-30T09:44:30;27.40;99.90
12588;DHT22;6359;51.450;7.346;2022-10-30T09:47:11;26.70;99.90
12588;DHT22;6359;51.450;7.346;2022-10-30T09:49:56;26.90;99.90
12588;DHT22;6359;51.450;7.346;2022-10-30T09:52:29;26.90;99.90
12588;DHT22;6359;51.450;7.346;2022-10-30T09:55:19;28.40;99.90
12588;DHT22;6359;51.450;7.346;2022-10-30T09:57:56;28.20;99.90
12588;DHT22;6359;51.450;7.346;2022-10-30T10:00:29;27.90;99.90
12588;DHT22;6359;51.450;7.346;2022-10-30T10:03:11;27.70;99.90
12588;DHT22;6359;51.450;7.346;2022-10-30T10:05:43;27.90;99.90
12588;DHT22;6359;51.450;7.346;2022-10-30T10:08:14;27.80;99.90
12588;DHT22;6359;51.450;7.346;2022-10-30T10:10:44;28.00;99.90
12588;DHT22;6359;51.450;7.346;2022-10-30T10:13:21;27.80;99.90
12588;DHT22;6359;51.450;7.346;2022-10-30T10:15:54;28.50;99.90
12588;DHT22;6359;51.450;7.346;2022-10-30T10:18:27;28.30;99.90
12588;DHT22;6359;51.450;7.346;2022-10-30T10:20:58;28.20;99.90
12588;DHT22;6359;51.450;7.346;2022-10-30T10:23:32;28.00;99.90
12588;DHT22;6359;51.450;7.346;2022-10-30T10:26:07;27.50;99.90
12588;DHT22;6359;51.450;7.346;2022-10-30T10:28:47;27.20;99.90
12588;DHT22;6359;51.450;7.346;2022-10-30T10:31:23;27.50;99.90
12588;DHT22;6359;51.450;7.346;2022-10-30T10:36:50;27.50;99.90
12588;DHT22;6359;51.450;7.346;2022-10-30T10:39:32;27.40;99.90
12588;DHT22;6359;51.450;7.346;2022-10-30T10:42:15;27.40;99.90
12588;DHT22;6359;51.450;7.346;2022-10-30T10:44:50;27.00;99.90
12588;DHT22;6359;51.450;7.346;2022-10-30T10:47:35;27.00;99.90
12588;DHT22;6359;51.450;7.346;2022-10-30T10:50:17;26.80;99.90
12588;DHT22;6359;51.450;7.346;2022-10-30T10:52:48;26.90;99.90
12588;DHT22;6359;51.450;7.346;2022-10-30T10:55:18;26.70;99.90
12588;DHT22;6359;51.450;7.346;2022-10-30T10:57:47;26.70;99.90
12588;DHT22;6359;51.450;7.346;2022-10-30T11:00:16;26.40;99.90
12588;DHT22;6359;51.450;7.346;2022-10-30T11:02:48;25.90;99.90
12588;DHT22;6359;51.450;7.346;2022-10-30T11:05:25;25.70;99.90
12588;DHT22;6359;51.450;7.346;2022-10-30T11:07:57;25.70;99.90
12588;DHT22;6359;51.450;7.346;2022-10-30T11:10:24;26.10;99.90
12588;DHT22;6359;51.450;7.346;2022-10-30T11:12:51;26.40;99.90
12588;DHT22;6359;51.450;7.346;2022-10-30T11:15:32;26.20;99.90
12588;DHT22;6359;51.450;7.346;2022-10-30T11:18:03;25.90;99.90
12588;DHT22;6359;51.450;7.346;2022-10-30T11:20:40;25.60;99.90
12588;DHT22;6359;51.450;7.346;2022-10-30T11:23:33;25.50;99.90
12588;DHT22;6359;51.450;7.346;2022-10-30T11:26:04;25.20;99.90
12588;DHT22;6359;51.450;7.346;2022-10-30T11:28:38;25.10;99.90
12588;DHT22;6359;51.450;7.346;2022-10-30T11:31:21;25.00;99.90
12588;DHT22;6359;51.450;7.346;2022-10-30T11:33:49;24.90;99.90
12588;DHT22;6359;51.450;7.346;2022-10-30T11:36:20;24.70;99.90
12588;DHT22;6359;51.450;7.346;2022-10-30T11:38:48;24.80;99.90
12588;DHT22;6359;51.450;7.346;2022-10-30T11:41:16;24.70;99.90
12588;DHT22;6359;51.450;7.346;2022-10-30T11:43:44;24.60;99.90
12588;DHT22;6359;51.450;7.346;2022-10-30T11:46:17;24.50;99.90
12588;DHT22;6359;51.450;7.346;2022-10-30T11:48:46;24.40;99.90
12588;DHT22;6359;51.450;7.346;2022-10-30T11:51:30;24.30;99.90
12588;DHT22;6359;51.450;7.346;2022-10-30T11:53:58;24.10;99.90
12588;DHT22;6359;51.450;7.346;2022-10-30T11:56:25;23.90;99.90
12588;DHT22;6359;51.450;7.346;2022-10-30T11:58:54;24.00;99.90
12588;DHT22;6359;51.450;7.346;2022-10-30T12:01:23;24.00;99.90
12588;DHT22;6359;51.450;7.346;2022-10-30T12:03:50;23.90;99.90
12588;DHT22;6359;51.450;7.346;2022-10-30T12:06:26;24.00;99.90
12588;DHT22;6359;51.450;7.346;2022-10-30T12:09:02;24.10;99.90
12588;DHT22;6359;51.450;7.346;2022-10-30T12:11:31;24.20;99.90
12588;DHT22;6359;51.450;7.346;2022-10-30T12:13:58;24.40;99.90
12588;DHT22;6359;51.450;7.346;2022-10-30T12:16:26;24.20;99.90
12588;DHT22;6359;51.450;7.346;2022-10-30T12:18:58;24.10;99.90
12588;DHT22;6359;51.450;7.346;2022-10-30T12:21:26;23.90;99.90
12588;DHT22;6359;51.450;7.346;2022-10-30T12:23:56;23.90;99.90
12588;DHT22;6359;51.450;7.346;2022-10-30T12:26:27;23.90;99.90
12588;DHT22;6359;51.450;7.346;2022-10-30T12:28:58;23.90;99.90
12588;DHT22;6359;51.450;7.346;2022-10-30T12:31:32;24.00;99.90
12588;DHT22;6359;51.450;7.346;2022-10-30T12:34:13;24.00;99.90
12588;DHT22;6359;51.450;7.346;2022-10-30T12:36:46;24.10;99.90
12588;DHT22;6359;51.450;7.346;2022-10-30T12:39:20;24.20;99.90
12588;DHT22;6359;51.450;7.346;2022-10-30T12:41:57;24.10;99.90
12588;DHT22;6359;51.450;7.346;2022-10-30T12:44:28;23.90;99.90
12588;DHT22;6359;51.450;7.346;2022-10-30T12:47:00;23.80;99.90
12588;DHT22;6359;51.450;7.346;2022-10-30T12:49:33;23.70;99.90
12588;DHT22;6359;51.450;7.346;2022-10-30T12:52:05;23.60;99.90
12588;DHT22;6359;51.450;7.346;2022-10-30T12:54:38;23.40;99.90
12588;DHT22;6359;51.450;7.346;2022-10-30T12:57:13;23.30;99.90
12588;DHT22;6359;51.450;7.346;2022-10-30T12:59:50;23.30;99.90
12588;DHT22;6359;51.450;7.346;2022-10-30T13:02:28;23.30;99.90
12588;DHT22;6359;51.450;7.346;2022-10-30T13:05:01;23.30;99.90
12588;DHT22;6359;51.450;7.346;2022-10-30T13:07:36;23.30;99.90
12588;DHT22;6359;51.450;7.346;2022-10-30T13:10:17;23.30;99.90
12588;DHT22;6359;51.450;7.346;2022-10-30T13:12:50;23.20;99.90
12588;DHT22;6359;51.450;7.346;2022-10-30T13:15:22;23.20;99.90
12588;DHT22;6359;51.450;7.346;2022-10-30T13:17:50;23.30;99.90
12588;DHT22;6359;51.450;7.346;2022-10-30T13:20:17;23.30;99.90
12588;DHT22;6359;51.450;7.346;2022-10-30T13:22:48;23.30;99.90
12588;DHT22;6359;51.450;7.346;2022-10-30T13:25:19;23.30;99.90
12588;DHT22;6359;51.450;7.346;2022-10-30T13:27:52;23.30;99.90
12588;DHT22;6359;51.450;7.346;2022-10-30T13:30:22;23.20;99.90
12588;DHT22;6359;51.450;7.346;2022-10-30T13:33:04;23.00;99.90
12588;DHT22;6359;51.450;7.346;2022-10-30T13:35:37;23.00;99.90
12588;DHT22;6359;51.450;7.346;2022-10-30T13:38:24;23.00;99.90
12588;DHT22;6359;51.450;7.346;2022-10-30T13:40:59;22.90;99.90
12588;DHT22;6359;51.450;7.346;2022-10-30T13:43:34;22.90;99.90
12588;DHT22;6359;51.450;7.346;2022-10-30T13:46:17;22.90;99.90
12588;DHT22;6359;51.450;7.346;2022-10-30T13:49:08;23.00;99.90
12588;DHT22;6359;51.450;7.346;2022-10-30T13:51:41;23.10;99.90
12588;DHT22;6359;51.450;7.346;2022-10-30T13:54:17;23.00;99.90
12588;DHT22;6359;51.450;7.346;2022-10-30T13:56:46;23.00;99.90
12588;DHT22;6359;51.450;7.346;2022-10-30T13:59:25;23.00;99.90
12588;DHT22;6359;51.450;7.346;2022-10-30T14:02:00;22.90;99.90
12588;DHT22;6359;51.450;7.346;2022-10-30T14:04:34;22.80;99.90
12588;DHT22;6359;51.450;7.346;2022-10-30T14:07:14;22.70;99.90
12588;DHT22;6359;51.450;7.346;2022-10-30T14:09:53;22.50;99.90
12588;DHT22;6359;51.450;7.346;2022-10-30T14:12:44;22.40;99.90
12588;DHT22;6359;51.450;7.346;2022-10-30T14:15:23;22.30;99.90
12588;DHT22;6359;51.450;7.346;2022-10-30T14:18:20;22.30;99.90
12588;DHT22;6359;51.450;7.346;2022-10-30T14:20:49;22.10;99.90
12588;DHT22;6359;51.450;7.346;2022-10-30T14:23:20;22.10;99.90
12588;DHT22;6359;51.450;7.346;2022-10-30T14:26:13;22.00;99.90
12588;DHT22;6359;51.450;7.346;2022-10-30T14:28:41;21.90;99.90
12588;DHT22;6359;51.450;7.346;2022-10-30T14:31:12;21.80;99.90
12588;DHT22;6359;51.450;7.346;2022-10-30T14:33:46;21.80;99.90
12588;DHT22;6359;51.450;7.346;2022-10-30T14:36:21;21.60;99.90
12588;DHT22;6359;51.450;7.346;2022-10-30T14:38:57;21.60;99.90
12588;DHT22;6359;51.450;7.346;2022-10-30T14:41:36;21.60;99.90
12588;DHT22;6359;51.450;7.346;2022-10-30T14:44:19;21.60;99.90
12588;DHT22;6359;51.450;7.346;2022-10-30T14:47:01;21.50;99.90
12588;DHT22;6359;51.450;7.346;2022-10-30T14:49:41;21.50;99.90
12588;DHT22;6359;51.450;7.346;2022-10-30T14:52:28;21.40;99.90
12588;DHT22;6359;51.450;7.346;2022-10-30T14:55:07;21.40;99.90
12588;DHT22;6359;51.450;7.346;2022-10-30T14:58:12;21.30;99.90
12588;DHT22;6359;51.450;7.346;2022-10-30T15:00:41;21.20;99.90
12588;DHT22;6359;51.450;7.346;2022-10-30T15:03:16;21.20;99.90
12588;DHT22;6359;51.450;7.346;2022-10-30T15:05:48;21.10;99.90
12588;DHT22;6359;51.450;7.346;2022-10-30T15:08:40;21.00;99.90
12588;DHT22;6359;51.450;7.346;2022-10-30T15:11:20;21.00;99.90
12588;DHT22;6359;51.450;7.346;2022-10-30T15:13:53;20.90;99.90
12588;DHT22;6359;51.450;7.346;2022-10-30T15:16:23;20.90;99.90
12588;DHT22;6359;51.450;7.346;2022-10-30T15:18:58;20.80;99.90
12588;DHT22;6359;51.450;7.346;2022-10-30T15:21:30;20.70;99.90
12588;DHT22;6359;51.450;7.346;2022-10-30T15:23:59;20.60;99.90
12588;DHT22;6359;51.450;7.346;2022-10-30T15:26:30;20.40;99.90
12588;DHT22;6359;51.450;7.346;2022-10-30T15:29:00;20.40;99.90
12588;DHT22;6359;51.450;7.346;2022-10-30T15:31:30;20.30;99.90
12588;DHT22;6359;51.450;7.346;2022-10-30T15:33:59;20.30;99.90
12588;DHT22;6359;51.450;7.346;2022-10-30T15:36:27;20.20;99.90
12588;DHT22;6359;51.450;7.346;2022-10-30T15:39:04;20.10;99.90
12588;DHT22;6359;51.450;7.346;2022-10-30T15:41:31;19.90;99.90
12588;DHT22;6359;51.450;7.346;2022-10-30T15:44:00;19.80;99.90
12588;DHT22;6359;51.450;7.346;2022-10-30T15:46:30;19.60;99.90
12588;DHT22;6359;51.450;7.346;2022-10-30T15:48:58;19.40;99.90
12588;DHT22;6359;51.450;7.346;2022-10-30T15:51:25;19.20;99.90
12588;DHT22;6359;51.450;7.346;2022-10-30T15:53:55;19.00;99.90
12588;DHT22;6359;51.450;7.346;2022-10-30T15:56:25;18.80;99.90
12588;DHT22;6359;51.450;7.346;2022-10-30T15:58:56;18.60;99.90
12588;DHT22;6359;51.450;7.346;2022-10-30T16:01:26;18.50;99.90
12588;DHT22;6359;51.450;7.346;2022-10-30T16:03:53;18.30;99.90
12588;DHT22;6359;51.450;7.346;2022-10-30T16:06:24;18.20;99.90
12588;DHT22;6359;51.450;7.346;2022-10-30T16:08:54;18.10;99.90
12588;DHT22;6359;51.450;7.346;2022-10-30T16:11:22;18.00;99.90